Pagina principale
METAR-TAF:

METAR-TAF

Aeroporti :

Valdez, Alaska, Stati Uniti

latitudine: 61-08N, longitudine: 146-16W, altezza: 37 m

Osservazione

Il bollettino è stato emesso 19 minuti fa, alle 14:56 UTC
Vento calmo
Temperature 8°C
Umidità 87%
Pressione 1025 hPa
Visibilità: 16.1 km
Nubi sparse ad un'altezza di 30000 ft

METAR: PAVD 191456Z COR 00000KT 10SM SCT300 08/06 A3028 RMK AO2 SLP277 T00830061 53006

Ora: 07:15 (15:15 UTC)

Previsione

Il bollettino è stato emesso 3 ore e 46 minuti fa, alle 11:29 UTC
Previsione valida dal 19 alle 12 UTC al 20 alle 12 UTC
Vento 6 kt da est
Visibilità: 10 km
Poco nuvoloso ad un'altezza di 7000 ft
Nubi sparse ad un'altezza di 20000 ft
A partire da 19 alle 2300 UTC
Vento 13 kt da ovest/sud-ovest
Visibilità: 10 km
Poco nuvoloso ad un'altezza di 20000 ft

TAF: PAVD 191129Z 1912/2012 10006KT P6SM FEW070 SCT200 FM192300 25013KT P6SM FEW200 AMD LTD TO CLD VIS AND WIND

Osservazioni e previsioni meteorologiche di più di 4000 aeroporti (messaggi METAR e TAF).

Le stazioni disponibili sono rappresentate dai dischi gialli e rossi sulla carta.

Puntare il mouse per vedere il nome della stazione.

Clicca sopra per visualizzare le osservazioni e previsioni meteorologiche.

Per cambiare la mappa : fare clic sui pulsanti verdi con una croce nera per ingrandire, il pulsante verde con un trattino per diminuire, o sulla freccia verde per le mappe adiacenti.


METAR-TAF: